sensor_id;sensor_type;location;lat;lon;timestamp;P1;durP1;ratioP1;P2;durP2;ratioP2
44746;SDS011;30472;49.490;10.972;2023-04-24T00:01:46;6.43;;;3.30;;
44746;SDS011;30472;49.490;10.972;2023-04-24T00:04:12;5.27;;;3.43;;
44746;SDS011;30472;49.490;10.972;2023-04-24T00:06:39;3.73;;;3.43;;
44746;SDS011;30472;49.490;10.972;2023-04-24T00:09:07;4.83;;;4.00;;
44746;SDS011;30472;49.490;10.972;2023-04-24T00:11:34;4.27;;;2.90;;
44746;SDS011;30472;49.490;10.972;2023-04-24T00:14:00;4.97;;;3.60;;
44746;SDS011;30472;49.490;10.972;2023-04-24T00:16:26;4.43;;;3.83;;
44746;SDS011;30472;49.490;10.972;2023-04-24T00:18:52;3.70;;;3.30;;
44746;SDS011;30472;49.490;10.972;2023-04-24T00:21:18;3.70;;;3.40;;
44746;SDS011;30472;49.490;10.972;2023-04-24T00:23:44;4.30;;;3.57;;
44746;SDS011;30472;49.490;10.972;2023-04-24T00:26:10;6.40;;;3.60;;
44746;SDS011;30472;49.490;10.972;2023-04-24T00:28:35;3.77;;;3.47;;
44746;SDS011;30472;49.490;10.972;2023-04-24T00:31:01;4.63;;;3.77;;
44746;SDS011;30472;49.490;10.972;2023-04-24T00:33:27;4.87;;;3.77;;
44746;SDS011;30472;49.490;10.972;2023-04-24T00:35:52;9.67;;;4.03;;
44746;SDS011;30472;49.490;10.972;2023-04-24T00:38:18;5.17;;;3.70;;
44746;SDS011;30472;49.490;10.972;2023-04-24T00:40:43;4.40;;;3.70;;
44746;SDS011;30472;49.490;10.972;2023-04-24T00:43:09;4.97;;;3.97;;
44746;SDS011;30472;49.490;10.972;2023-04-24T00:45:35;4.57;;;4.13;;
44746;SDS011;30472;49.490;10.972;2023-04-24T00:48:01;3.73;;;3.43;;
44746;SDS011;30472;49.490;10.972;2023-04-24T00:50:27;4.30;;;3.57;;
44746;SDS011;30472;49.490;10.972;2023-04-24T00:52:53;3.70;;;3.40;;
44746;SDS011;30472;49.490;10.972;2023-04-24T00:55:19;4.27;;;3.87;;
44746;SDS011;30472;49.490;10.972;2023-04-24T00:57:45;5.20;;;3.63;;
44746;SDS011;30472;49.490;10.972;2023-04-24T01:00:12;6.33;;;3.50;;
44746;SDS011;30472;49.490;10.972;2023-04-24T01:02:39;6.07;;;3.67;;
44746;SDS011;30472;49.490;10.972;2023-04-24T01:05:09;3.93;;;3.27;;
44746;SDS011;30472;49.490;10.972;2023-04-24T01:07:36;4.27;;;3.67;;
44746;SDS011;30472;49.490;10.972;2023-04-24T01:10:02;5.13;;;3.63;;
44746;SDS011;30472;49.490;10.972;2023-04-24T01:12:28;4.43;;;3.20;;
44746;SDS011;30472;49.490;10.972;2023-04-24T01:14:54;3.37;;;3.10;;
44746;SDS011;30472;49.490;10.972;2023-04-24T01:17:21;4.47;;;3.47;;
44746;SDS011;30472;49.490;10.972;2023-04-24T01:19:47;4.20;;;3.83;;
44746;SDS011;30472;49.490;10.972;2023-04-24T01:22:13;5.10;;;3.70;;
44746;SDS011;30472;49.490;10.972;2023-04-24T01:24:40;4.07;;;3.70;;
44746;SDS011;30472;49.490;10.972;2023-04-24T01:27:07;3.87;;;3.57;;
44746;SDS011;30472;49.490;10.972;2023-04-24T01:29:33;4.17;;;3.10;;
44746;SDS011;30472;49.490;10.972;2023-04-24T01:32:00;3.90;;;3.20;;
44746;SDS011;30472;49.490;10.972;2023-04-24T01:34:26;5.23;;;3.60;;
44746;SDS011;30472;49.490;10.972;2023-04-24T01:36:51;4.40;;;3.53;;
44746;SDS011;30472;49.490;10.972;2023-04-24T01:39:17;3.73;;;3.10;;
44746;SDS011;30472;49.490;10.972;2023-04-24T01:41:43;3.53;;;3.23;;
44746;SDS011;30472;49.490;10.972;2023-04-24T01:44:08;3.43;;;2.50;;
44746;SDS011;30472;49.490;10.972;2023-04-24T01:46:34;3.83;;;2.50;;
44746;SDS011;30472;49.490;10.972;2023-04-24T01:49:01;3.83;;;2.23;;
44746;SDS011;30472;49.490;10.972;2023-04-24T01:51:27;2.47;;;2.27;;
44746;SDS011;30472;49.490;10.972;2023-04-24T01:53:52;2.57;;;2.47;;
44746;SDS011;30472;49.490;10.972;2023-04-24T01:56:19;3.23;;;2.07;;
44746;SDS011;30472;49.490;10.972;2023-04-24T01:58:46;2.63;;;2.43;;
44746;SDS011;30472;49.490;10.972;2023-04-24T02:01:23;2.90;;;2.27;;
44746;SDS011;30472;49.490;10.972;2023-04-24T02:03:49;2.20;;;2.10;;
44746;SDS011;30472;49.490;10.972;2023-04-24T02:06:15;3.37;;;2.00;;
44746;SDS011;30472;49.490;10.972;2023-04-24T02:08:41;3.07;;;2.20;;
44746;SDS011;30472;49.490;10.972;2023-04-24T02:11:08;4.27;;;2.30;;
44746;SDS011;30472;49.490;10.972;2023-04-24T02:13:34;2.03;;;1.87;;
44746;SDS011;30472;49.490;10.972;2023-04-24T02:15:59;2.50;;;2.27;;
44746;SDS011;30472;49.490;10.972;2023-04-24T02:18:25;3.83;;;2.63;;
44746;SDS011;30472;49.490;10.972;2023-04-24T02:20:51;4.50;;;2.30;;
44746;SDS011;30472;49.490;10.972;2023-04-24T02:23:16;3.47;;;2.90;;
44746;SDS011;30472;49.490;10.972;2023-04-24T02:25:42;3.00;;;2.70;;
44746;SDS011;30472;49.490;10.972;2023-04-24T02:28:07;2.40;;;2.13;;
44746;SDS011;30472;49.490;10.972;2023-04-24T02:30:33;2.10;;;2.00;;
44746;SDS011;30472;49.490;10.972;2023-04-24T02:32:58;3.60;;;2.60;;
44746;SDS011;30472;49.490;10.972;2023-04-24T02:35:24;2.77;;;2.57;;
44746;SDS011;30472;49.490;10.972;2023-04-24T02:37:50;3.33;;;2.63;;
44746;SDS011;30472;49.490;10.972;2023-04-24T02:40:15;2.37;;;2.17;;
44746;SDS011;30472;49.490;10.972;2023-04-24T02:42:41;2.10;;;2.00;;
44746;SDS011;30472;49.490;10.972;2023-04-24T02:45:07;2.27;;;2.17;;
44746;SDS011;30472;49.490;10.972;2023-04-24T02:47:33;2.37;;;2.20;;
44746;SDS011;30472;49.490;10.972;2023-04-24T02:49:58;4.87;;;2.37;;
44746;SDS011;30472;49.490;10.972;2023-04-24T02:52:24;2.83;;;2.03;;
44746;SDS011;30472;49.490;10.972;2023-04-24T02:54:49;1.93;;;1.83;;
44746;SDS011;30472;49.490;10.972;2023-04-24T02:57:15;2.60;;;2.40;;
44746;SDS011;30472;49.490;10.972;2023-04-24T02:59:40;2.63;;;2.43;;
44746;SDS011;30472;49.490;10.972;2023-04-24T03:02:06;2.63;;;2.43;;
44746;SDS011;30472;49.490;10.972;2023-04-24T03:04:32;3.80;;;2.97;;
44746;SDS011;30472;49.490;10.972;2023-04-24T03:06:57;4.20;;;3.50;;
44746;SDS011;30472;49.490;10.972;2023-04-24T03:09:23;3.93;;;3.43;;
44746;SDS011;30472;49.490;10.972;2023-04-24T03:11:49;3.47;;;2.80;;
44746;SDS011;30472;49.490;10.972;2023-04-24T03:14:15;3.97;;;2.47;;
44746;SDS011;30472;49.490;10.972;2023-04-24T03:16:41;3.77;;;2.90;;
44746;SDS011;30472;49.490;10.972;2023-04-24T03:19:06;3.53;;;2.83;;
44746;SDS011;30472;49.490;10.972;2023-04-24T03:21:32;2.70;;;2.50;;
44746;SDS011;30472;49.490;10.972;2023-04-24T03:23:58;2.57;;;2.13;;
44746;SDS011;30472;49.490;10.972;2023-04-24T03:26:24;2.30;;;2.10;;
44746;SDS011;30472;49.490;10.972;2023-04-24T03:28:50;2.40;;;2.20;;
44746;SDS011;30472;49.490;10.972;2023-04-24T03:31:15;2.60;;;2.37;;
44746;SDS011;30472;49.490;10.972;2023-04-24T03:33:41;3.60;;;2.50;;
44746;SDS011;30472;49.490;10.972;2023-04-24T03:36:07;2.73;;;2.53;;
44746;SDS011;30472;49.490;10.972;2023-04-24T03:38:32;5.07;;;2.70;;
44746;SDS011;30472;49.490;10.972;2023-04-24T03:40:58;4.57;;;2.93;;
44746;SDS011;30472;49.490;10.972;2023-04-24T03:43:24;3.73;;;2.53;;
44746;SDS011;30472;49.490;10.972;2023-04-24T03:45:49;8.37;;;2.77;;
44746;SDS011;30472;49.490;10.972;2023-04-24T03:48:15;3.50;;;2.97;;
44746;SDS011;30472;49.490;10.972;2023-04-24T03:50:41;4.27;;;2.37;;
44746;SDS011;30472;49.490;10.972;2023-04-24T03:53:07;2.40;;;2.27;;
44746;SDS011;30472;49.490;10.972;2023-04-24T03:55:33;2.83;;;2.50;;
44746;SDS011;30472;49.490;10.972;2023-04-24T03:57:58;2.80;;;2.60;;
44746;SDS011;30472;49.490;10.972;2023-04-24T04:00:24;3.20;;;2.43;;
44746;SDS011;30472;49.490;10.972;2023-04-24T04:02:51;6.30;;;2.80;;
44746;SDS011;30472;49.490;10.972;2023-04-24T04:05:16;2.70;;;2.50;;
44746;SDS011;30472;49.490;10.972;2023-04-24T04:07:42;3.43;;;2.10;;
44746;SDS011;30472;49.490;10.972;2023-04-24T04:10:07;3.57;;;3.27;;
44746;SDS011;30472;49.490;10.972;2023-04-24T04:12:33;4.00;;;3.53;;
44746;SDS011;30472;49.490;10.972;2023-04-24T04:14:59;3.70;;;3.10;;
44746;SDS011;30472;49.490;10.972;2023-04-24T04:17:25;3.70;;;3.40;;
44746;SDS011;30472;49.490;10.972;2023-04-24T04:19:50;3.43;;;2.77;;
44746;SDS011;30472;49.490;10.972;2023-04-24T04:22:16;3.67;;;3.07;;
44746;SDS011;30472;49.490;10.972;2023-04-24T04:24:41;3.07;;;2.77;;
44746;SDS011;30472;49.490;10.972;2023-04-24T04:27:07;3.27;;;3.07;;
44746;SDS011;30472;49.490;10.972;2023-04-24T04:29:34;3.40;;;3.10;;
44746;SDS011;30472;49.490;10.972;2023-04-24T04:32:00;3.50;;;2.90;;
44746;SDS011;30472;49.490;10.972;2023-04-24T04:34:27;2.90;;;2.70;;
44746;SDS011;30472;49.490;10.972;2023-04-24T04:36:53;5.33;;;3.40;;
44746;SDS011;30472;49.490;10.972;2023-04-24T04:39:18;3.00;;;2.73;;
44746;SDS011;30472;49.490;10.972;2023-04-24T04:41:44;4.90;;;2.80;;
44746;SDS011;30472;49.490;10.972;2023-04-24T04:44:13;3.97;;;2.90;;
44746;SDS011;30472;49.490;10.972;2023-04-24T04:46:39;4.40;;;3.43;;
44746;SDS011;30472;49.490;10.972;2023-04-24T04:49:06;4.10;;;3.33;;
44746;SDS011;30472;49.490;10.972;2023-04-24T04:51:33;2.97;;;2.77;;
44746;SDS011;30472;49.490;10.972;2023-04-24T04:53:59;3.03;;;2.70;;
44746;SDS011;30472;49.490;10.972;2023-04-24T04:56:25;2.77;;;2.57;;
44746;SDS011;30472;49.490;10.972;2023-04-24T04:58:51;2.67;;;2.47;;
44746;SDS011;30472;49.490;10.972;2023-04-24T05:01:16;3.27;;;2.97;;
44746;SDS011;30472;49.490;10.972;2023-04-24T05:03:42;4.00;;;2.70;;
44746;SDS011;30472;49.490;10.972;2023-04-24T05:06:08;3.13;;;2.93;;
44746;SDS011;30472;49.490;10.972;2023-04-24T05:08:34;3.83;;;3.03;;
44746;SDS011;30472;49.490;10.972;2023-04-24T05:10:59;4.47;;;3.27;;
44746;SDS011;30472;49.490;10.972;2023-04-24T05:13:25;3.60;;;2.90;;
44746;SDS011;30472;49.490;10.972;2023-04-24T05:15:51;5.47;;;2.83;;
44746;SDS011;30472;49.490;10.972;2023-04-24T05:18:16;2.40;;;2.20;;
44746;SDS011;30472;49.490;10.972;2023-04-24T05:20:42;3.20;;;2.80;;
44746;SDS011;30472;49.490;10.972;2023-04-24T05:23:08;2.73;;;2.53;;
44746;SDS011;30472;49.490;10.972;2023-04-24T05:25:34;3.23;;;2.90;;
44746;SDS011;30472;49.490;10.972;2023-04-24T05:28:01;2.33;;;2.20;;
44746;SDS011;30472;49.490;10.972;2023-04-24T05:30:27;3.27;;;2.93;;
44746;SDS011;30472;49.490;10.972;2023-04-24T05:32:54;2.43;;;2.23;;
44746;SDS011;30472;49.490;10.972;2023-04-24T05:35:19;2.40;;;2.23;;
44746;SDS011;30472;49.490;10.972;2023-04-24T05:37:45;4.93;;;2.63;;
44746;SDS011;30472;49.490;10.972;2023-04-24T05:40:10;2.90;;;2.60;;
44746;SDS011;30472;49.490;10.972;2023-04-24T05:42:36;2.17;;;2.07;;
44746;SDS011;30472;49.490;10.972;2023-04-24T05:45:02;2.70;;;2.50;;
44746;SDS011;30472;49.490;10.972;2023-04-24T05:47:28;2.77;;;2.57;;
44746;SDS011;30472;49.490;10.972;2023-04-24T05:49:54;3.53;;;2.70;;
44746;SDS011;30472;49.490;10.972;2023-04-24T05:52:19;3.13;;;2.67;;
44746;SDS011;30472;49.490;10.972;2023-04-24T05:54:45;2.97;;;2.67;;
44746;SDS011;30472;49.490;10.972;2023-04-24T05:57:10;3.20;;;2.60;;
44746;SDS011;30472;49.490;10.972;2023-04-24T05:59:37;8.87;;;2.67;;
44746;SDS011;30472;49.490;10.972;2023-04-24T06:02:05;2.97;;;2.77;;
44746;SDS011;30472;49.490;10.972;2023-04-24T06:04:32;2.57;;;2.37;;
44746;SDS011;30472;49.490;10.972;2023-04-24T06:06:58;2.70;;;2.50;;
44746;SDS011;30472;49.490;10.972;2023-04-24T06:09:24;5.37;;;2.80;;
44746;SDS011;30472;49.490;10.972;2023-04-24T06:11:50;3.43;;;2.73;;
44746;SDS011;30472;49.490;10.972;2023-04-24T06:14:18;2.80;;;2.47;;
44746;SDS011;30472;49.490;10.972;2023-04-24T06:16:44;5.37;;;2.47;;
44746;SDS011;30472;49.490;10.972;2023-04-24T06:19:09;4.90;;;2.53;;
44746;SDS011;30472;49.490;10.972;2023-04-24T06:21:35;2.63;;;2.30;;
44746;SDS011;30472;49.490;10.972;2023-04-24T06:24:00;2.37;;;1.60;;
44746;SDS011;30472;49.490;10.972;2023-04-24T06:26:26;2.30;;;2.10;;
44746;SDS011;30472;49.490;10.972;2023-04-24T06:28:52;3.40;;;2.20;;
44746;SDS011;30472;49.490;10.972;2023-04-24T06:31:21;5.83;;;2.30;;
44746;SDS011;30472;49.490;10.972;2023-04-24T06:33:47;2.50;;;2.00;;
44746;SDS011;30472;49.490;10.972;2023-04-24T06:36:13;2.13;;;1.87;;
44746;SDS011;30472;49.490;10.972;2023-04-24T06:38:39;2.90;;;2.47;;
44746;SDS011;30472;49.490;10.972;2023-04-24T06:41:05;2.20;;;2.00;;
44746;SDS011;30472;49.490;10.972;2023-04-24T06:43:31;1.97;;;1.80;;
44746;SDS011;30472;49.490;10.972;2023-04-24T06:45:57;2.87;;;1.90;;
44746;SDS011;30472;49.490;10.972;2023-04-24T06:48:23;3.23;;;2.00;;
44746;SDS011;30472;49.490;10.972;2023-04-24T06:50:50;2.23;;;2.00;;
44746;SDS011;30472;49.490;10.972;2023-04-24T06:53:16;2.20;;;2.00;;
44746;SDS011;30472;49.490;10.972;2023-04-24T06:55:41;2.53;;;1.77;;
44746;SDS011;30472;49.490;10.972;2023-04-24T06:58:08;1.97;;;1.67;;
44746;SDS011;30472;49.490;10.972;2023-04-24T07:00:34;2.23;;;1.90;;
44746;SDS011;30472;49.490;10.972;2023-04-24T07:03:00;1.70;;;1.60;;
44746;SDS011;30472;49.490;10.972;2023-04-24T07:05:25;1.77;;;1.67;;
44746;SDS011;30472;49.490;10.972;2023-04-24T07:07:51;1.60;;;1.50;;
44746;SDS011;30472;49.490;10.972;2023-04-24T07:10:16;3.57;;;1.50;;
44746;SDS011;30472;49.490;10.972;2023-04-24T07:12:43;2.03;;;1.60;;
44746;SDS011;30472;49.490;10.972;2023-04-24T07:15:08;1.60;;;1.47;;
44746;SDS011;30472;49.490;10.972;2023-04-24T07:17:35;1.30;;;1.20;;
44746;SDS011;30472;49.490;10.972;2023-04-24T07:20:03;1.37;;;1.27;;
44746;SDS011;30472;49.490;10.972;2023-04-24T07:22:29;2.53;;;1.43;;
44746;SDS011;30472;49.490;10.972;2023-04-24T07:24:55;2.23;;;1.50;;
44746;SDS011;30472;49.490;10.972;2023-04-24T07:27:20;1.60;;;1.40;;
44746;SDS011;30472;49.490;10.972;2023-04-24T07:29:46;1.63;;;1.50;;
44746;SDS011;30472;49.490;10.972;2023-04-24T07:32:11;2.43;;;1.53;;
44746;SDS011;30472;49.490;10.972;2023-04-24T07:34:37;1.60;;;1.50;;
44746;SDS011;30472;49.490;10.972;2023-04-24T07:37:03;2.43;;;2.20;;
44746;SDS011;30472;49.490;10.972;2023-04-24T07:39:29;1.87;;;1.77;;
44746;SDS011;30472;49.490;10.972;2023-04-24T07:41:54;2.30;;;1.70;;
44746;SDS011;30472;49.490;10.972;2023-04-24T07:44:20;2.97;;;1.73;;
44746;SDS011;30472;49.490;10.972;2023-04-24T07:46:45;2.20;;;1.70;;
44746;SDS011;30472;49.490;10.972;2023-04-24T07:49:12;1.57;;;1.47;;
44746;SDS011;30472;49.490;10.972;2023-04-24T07:51:37;1.43;;;1.33;;
44746;SDS011;30472;49.490;10.972;2023-04-24T07:54:04;1.57;;;1.47;;
44746;SDS011;30472;49.490;10.972;2023-04-24T07:56:33;3.20;;;1.23;;
44746;SDS011;30472;49.490;10.972;2023-04-24T07:58:59;1.33;;;1.20;;
44746;SDS011;30472;49.490;10.972;2023-04-24T08:01:26;2.13;;;1.30;;
44746;SDS011;30472;49.490;10.972;2023-04-24T08:03:52;1.30;;;1.20;;
44746;SDS011;30472;49.490;10.972;2023-04-24T08:06:17;1.57;;;1.00;;
44746;SDS011;30472;49.490;10.972;2023-04-24T08:08:44;2.53;;;1.40;;
44746;SDS011;30472;49.490;10.972;2023-04-24T08:11:11;1.63;;;1.40;;
44746;SDS011;30472;49.490;10.972;2023-04-24T08:13:37;2.27;;;1.33;;
44746;SDS011;30472;49.490;10.972;2023-04-24T08:16:02;1.57;;;1.47;;
44746;SDS011;30472;49.490;10.972;2023-04-24T08:18:28;4.47;;;1.43;;
44746;SDS011;30472;49.490;10.972;2023-04-24T08:20:53;2.60;;;1.40;;
44746;SDS011;30472;49.490;10.972;2023-04-24T08:23:19;2.50;;;1.80;;
44746;SDS011;30472;49.490;10.972;2023-04-24T08:25:47;2.33;;;1.80;;
44746;SDS011;30472;49.490;10.972;2023-04-24T08:28:13;1.87;;;1.70;;
44746;SDS011;30472;49.490;10.972;2023-04-24T08:30:45;2.20;;;2.00;;
44746;SDS011;30472;49.490;10.972;2023-04-24T08:33:10;2.93;;;2.10;;
44746;SDS011;30472;49.490;10.972;2023-04-24T08:35:36;1.97;;;1.80;;
44746;SDS011;30472;49.490;10.972;2023-04-24T08:38:02;1.80;;;1.70;;
44746;SDS011;30472;49.490;10.972;2023-04-24T08:40:28;4.03;;;2.30;;
44746;SDS011;30472;49.490;10.972;2023-04-24T08:42:58;2.43;;;2.07;;
44746;SDS011;30472;49.490;10.972;2023-04-24T08:45:25;3.77;;;2.13;;
44746;SDS011;30472;49.490;10.972;2023-04-24T08:47:51;5.07;;;1.80;;
44746;SDS011;30472;49.490;10.972;2023-04-24T08:50:19;3.27;;;1.80;;
44746;SDS011;30472;49.490;10.972;2023-04-24T08:52:46;2.67;;;2.07;;
44746;SDS011;30472;49.490;10.972;2023-04-24T08:55:14;3.47;;;2.10;;
44746;SDS011;30472;49.490;10.972;2023-04-24T08:57:41;3.20;;;2.10;;
44746;SDS011;30472;49.490;10.972;2023-04-24T09:00:09;2.30;;;2.10;;
44746;SDS011;30472;49.490;10.972;2023-04-24T09:02:36;2.53;;;2.10;;
44746;SDS011;30472;49.490;10.972;2023-04-24T09:05:04;2.80;;;2.50;;
44746;SDS011;30472;49.490;10.972;2023-04-24T09:07:31;2.43;;;2.23;;
44746;SDS011;30472;49.490;10.972;2023-04-24T09:09:59;2.17;;;2.00;;
44746;SDS011;30472;49.490;10.972;2023-04-24T09:12:26;2.17;;;1.97;;
44746;SDS011;30472;49.490;10.972;2023-04-24T09:14:52;2.03;;;1.83;;
44746;SDS011;30472;49.490;10.972;2023-04-24T09:17:18;2.50;;;2.07;;
44746;SDS011;30472;49.490;10.972;2023-04-24T09:19:44;3.47;;;2.00;;
44746;SDS011;30472;49.490;10.972;2023-04-24T09:22:10;2.63;;;2.10;;
44746;SDS011;30472;49.490;10.972;2023-04-24T09:24:37;2.93;;;2.20;;
44746;SDS011;30472;49.490;10.972;2023-04-24T09:27:03;3.27;;;2.30;;
44746;SDS011;30472;49.490;10.972;2023-04-24T09:29:29;3.10;;;2.40;;
44746;SDS011;30472;49.490;10.972;2023-04-24T09:31:56;2.40;;;2.10;;
44746;SDS011;30472;49.490;10.972;2023-04-24T09:34:23;2.30;;;2.10;;
44746;SDS011;30472;49.490;10.972;2023-04-24T09:36:51;2.77;;;1.90;;
44746;SDS011;30472;49.490;10.972;2023-04-24T09:39:17;3.70;;;1.90;;
44746;SDS011;30472;49.490;10.972;2023-04-24T09:41:46;4.97;;;2.27;;
44746;SDS011;30472;49.490;10.972;2023-04-24T09:44:13;2.63;;;1.80;;
44746;SDS011;30472;49.490;10.972;2023-04-24T09:46:45;1.57;;;1.47;;
44746;SDS011;30472;49.490;10.972;2023-04-24T09:49:15;1.30;;;1.20;;
44746;SDS011;30472;49.490;10.972;2023-04-24T09:51:41;2.20;;;1.60;;
44746;SDS011;30472;49.490;10.972;2023-04-24T09:54:17;1.67;;;1.27;;
44746;SDS011;30472;49.490;10.972;2023-04-24T09:56:48;1.03;;;1.03;;
44746;SDS011;30472;49.490;10.972;2023-04-24T09:59:15;3.80;;;1.40;;
44746;SDS011;30472;49.490;10.972;2023-04-24T10:01:44;3.97;;;1.43;;
44746;SDS011;30472;49.490;10.972;2023-04-24T10:04:23;3.93;;;1.30;;
44746;SDS011;30472;49.490;10.972;2023-04-24T10:06:51;1.83;;;1.73;;
44746;SDS011;30472;49.490;10.972;2023-04-24T10:09:19;2.30;;;1.60;;
44746;SDS011;30472;49.490;10.972;2023-04-24T10:11:46;2.70;;;1.27;;
44746;SDS011;30472;49.490;10.972;2023-04-24T10:14:14;1.97;;;1.50;;
44746;SDS011;30472;49.490;10.972;2023-04-24T10:16:42;2.03;;;1.40;;
44746;SDS011;30472;49.490;10.972;2023-04-24T10:19:09;2.33;;;1.43;;
44746;SDS011;30472;49.490;10.972;2023-04-24T10:21:35;1.63;;;1.40;;
44746;SDS011;30472;49.490;10.972;2023-04-24T10:24:07;2.07;;;1.20;;
44746;SDS011;30472;49.490;10.972;2023-04-24T10:26:34;4.70;;;1.37;;
44746;SDS011;30472;49.490;10.972;2023-04-24T10:29:00;5.20;;;1.03;;
44746;SDS011;30472;49.490;10.972;2023-04-24T10:31:26;1.13;;;1.10;;
44746;SDS011;30472;49.490;10.972;2023-04-24T10:33:55;1.27;;;1.17;;
44746;SDS011;30472;49.490;10.972;2023-04-24T10:36:22;0.80;;;0.80;;
44746;SDS011;30472;49.490;10.972;2023-04-24T10:38:51;2.00;;;1.07;;
44746;SDS011;30472;49.490;10.972;2023-04-24T10:41:19;1.43;;;1.17;;
44746;SDS011;30472;49.490;10.972;2023-04-24T10:43:48;2.37;;;1.40;;
44746;SDS011;30472;49.490;10.972;2023-04-24T10:46:29;1.20;;;1.10;;
44746;SDS011;30472;49.490;10.972;2023-04-24T10:48:55;1.50;;;1.40;;
44746;SDS011;30472;49.490;10.972;2023-04-24T10:51:23;1.60;;;1.50;;
44746;SDS011;30472;49.490;10.972;2023-04-24T10:53:50;2.13;;;1.20;;
44746;SDS011;30472;49.490;10.972;2023-04-24T10:56:16;1.23;;;1.13;;
44746;SDS011;30472;49.490;10.972;2023-04-24T10:58:43;1.13;;;1.13;;
44746;SDS011;30472;49.490;10.972;2023-04-24T11:03:56;1.47;;;1.37;;
44746;SDS011;30472;49.490;10.972;2023-04-24T11:06:30;2.60;;;1.53;;
44746;SDS011;30472;49.490;10.972;2023-04-24T11:11:31;1.70;;;1.60;;
44746;SDS011;30472;49.490;10.972;2023-04-24T11:16:30;2.97;;;1.60;;
44746;SDS011;30472;49.490;10.972;2023-04-24T11:19:10;1.87;;;1.77;;
44746;SDS011;30472;49.490;10.972;2023-04-24T11:26:54;2.43;;;1.93;;
44746;SDS011;30472;49.490;10.972;2023-04-24T11:29:42;3.43;;;1.83;;
44746;SDS011;30472;49.490;10.972;2023-04-24T11:35:03;1.73;;;1.63;;
44746;SDS011;30472;49.490;10.972;2023-04-24T11:37:33;2.10;;;1.90;;
44746;SDS011;30472;49.490;10.972;2023-04-24T11:40:01;1.40;;;1.30;;
44746;SDS011;30472;49.490;10.972;2023-04-24T11:42:28;1.90;;;1.50;;
44746;SDS011;30472;49.490;10.972;2023-04-24T11:44:59;1.70;;;1.60;;
44746;SDS011;30472;49.490;10.972;2023-04-24T11:47:31;1.80;;;1.60;;
44746;SDS011;30472;49.490;10.972;2023-04-24T11:49:59;3.37;;;1.83;;
44746;SDS011;30472;49.490;10.972;2023-04-24T11:52:28;3.13;;;1.70;;
44746;SDS011;30472;49.490;10.972;2023-04-24T11:54:58;2.23;;;1.80;;
44746;SDS011;30472;49.490;10.972;2023-04-24T11:57:25;1.60;;;1.50;;
44746;SDS011;30472;49.490;10.972;2023-04-24T11:59:53;3.27;;;1.43;;
44746;SDS011;30472;49.490;10.972;2023-04-24T12:02:20;1.70;;;1.60;;
44746;SDS011;30472;49.490;10.972;2023-04-24T12:04:49;3.60;;;1.77;;
44746;SDS011;30472;49.490;10.972;2023-04-24T12:07:15;1.53;;;1.43;;
44746;SDS011;30472;49.490;10.972;2023-04-24T12:09:41;1.80;;;1.70;;
44746;SDS011;30472;49.490;10.972;2023-04-24T12:12:07;2.33;;;1.60;;
44746;SDS011;30472;49.490;10.972;2023-04-24T12:14:41;2.10;;;1.90;;
44746;SDS011;30472;49.490;10.972;2023-04-24T12:17:17;3.40;;;1.60;;
44746;SDS011;30472;49.490;10.972;2023-04-24T12:19:56;1.63;;;1.50;;
44746;SDS011;30472;49.490;10.972;2023-04-24T12:22:45;3.50;;;2.00;;
44746;SDS011;30472;49.490;10.972;2023-04-24T12:25:12;1.83;;;1.57;;
44746;SDS011;30472;49.490;10.972;2023-04-24T12:27:39;4.27;;;2.10;;
44746;SDS011;30472;49.490;10.972;2023-04-24T12:30:05;2.57;;;1.50;;
44746;SDS011;30472;49.490;10.972;2023-04-24T12:32:35;3.13;;;1.60;;
44746;SDS011;30472;49.490;10.972;2023-04-24T12:35:05;1.60;;;1.50;;
44746;SDS011;30472;49.490;10.972;2023-04-24T12:37:32;1.40;;;1.23;;
44746;SDS011;30472;49.490;10.972;2023-04-24T12:40:02;1.73;;;1.30;;
44746;SDS011;30472;49.490;10.972;2023-04-24T12:42:32;5.47;;;1.50;;
44746;SDS011;30472;49.490;10.972;2023-04-24T12:45:00;1.67;;;1.50;;
44746;SDS011;30472;49.490;10.972;2023-04-24T12:47:30;1.50;;;1.33;;
44746;SDS011;30472;49.490;10.972;2023-04-24T12:49:56;2.97;;;1.40;;
44746;SDS011;30472;49.490;10.972;2023-04-24T12:52:22;3.47;;;1.67;;
44746;SDS011;30472;49.490;10.972;2023-04-24T12:54:50;2.97;;;1.33;;
44746;SDS011;30472;49.490;10.972;2023-04-24T12:57:16;1.20;;;1.10;;
44746;SDS011;30472;49.490;10.972;2023-04-24T12:59:42;1.77;;;1.40;;
44746;SDS011;30472;49.490;10.972;2023-04-24T13:02:08;1.70;;;1.60;;
44746;SDS011;30472;49.490;10.972;2023-04-24T13:04:35;1.40;;;1.30;;
44746;SDS011;30472;49.490;10.972;2023-04-24T13:07:00;2.03;;;1.30;;
44746;SDS011;30472;49.490;10.972;2023-04-24T13:09:27;2.83;;;1.13;;
44746;SDS011;30472;49.490;10.972;2023-04-24T13:11:52;1.60;;;1.37;;
44746;SDS011;30472;49.490;10.972;2023-04-24T13:14:22;2.53;;;1.77;;
44746;SDS011;30472;49.490;10.972;2023-04-24T13:16:49;1.87;;;1.70;;
44746;SDS011;30472;49.490;10.972;2023-04-24T13:19:15;1.70;;;1.60;;
44746;SDS011;30472;49.490;10.972;2023-04-24T13:21:40;6.03;;;1.83;;
44746;SDS011;30472;49.490;10.972;2023-04-24T13:24:06;2.27;;;2.07;;
44746;SDS011;30472;49.490;10.972;2023-04-24T13:26:32;2.27;;;2.07;;
44746;SDS011;30472;49.490;10.972;2023-04-24T13:28:58;4.00;;;1.90;;
44746;SDS011;30472;49.490;10.972;2023-04-24T13:31:24;2.60;;;2.10;;
44746;SDS011;30472;49.490;10.972;2023-04-24T13:33:49;1.77;;;1.67;;
44746;SDS011;30472;49.490;10.972;2023-04-24T13:36:15;3.60;;;2.00;;
44746;SDS011;30472;49.490;10.972;2023-04-24T13:38:42;2.13;;;1.63;;
44746;SDS011;30472;49.490;10.972;2023-04-24T13:41:09;1.90;;;1.20;;
44746;SDS011;30472;49.490;10.972;2023-04-24T13:43:35;1.83;;;1.60;;
44746;SDS011;30472;49.490;10.972;2023-04-24T13:46:00;2.17;;;1.77;;
44746;SDS011;30472;49.490;10.972;2023-04-24T13:48:27;2.13;;;2.00;;
44746;SDS011;30472;49.490;10.972;2023-04-24T13:50:53;2.37;;;2.00;;
44746;SDS011;30472;49.490;10.972;2023-04-24T13:53:19;4.30;;;1.93;;
44746;SDS011;30472;49.490;10.972;2023-04-24T13:55:45;2.13;;;1.93;;
44746;SDS011;30472;49.490;10.972;2023-04-24T13:58:11;2.90;;;2.10;;
44746;SDS011;30472;49.490;10.972;2023-04-24T14:00:37;2.43;;;1.87;;
44746;SDS011;30472;49.490;10.972;2023-04-24T14:03:03;1.90;;;1.80;;
44746;SDS011;30472;49.490;10.972;2023-04-24T14:05:29;2.17;;;1.97;;
44746;SDS011;30472;49.490;10.972;2023-04-24T14:07:55;2.27;;;2.07;;
44746;SDS011;30472;49.490;10.972;2023-04-24T14:10:20;3.13;;;2.07;;
44746;SDS011;30472;49.490;10.972;2023-04-24T14:12:46;2.20;;;1.93;;
44746;SDS011;30472;49.490;10.972;2023-04-24T14:15:11;3.83;;;2.30;;
44746;SDS011;30472;49.490;10.972;2023-04-24T14:17:38;2.53;;;2.13;;
44746;SDS011;30472;49.490;10.972;2023-04-24T14:20:04;2.20;;;2.00;;
44746;SDS011;30472;49.490;10.972;2023-04-24T14:22:30;2.27;;;2.07;;
44746;SDS011;30472;49.490;10.972;2023-04-24T14:24:58;2.87;;;1.67;;
44746;SDS011;30472;49.490;10.972;2023-04-24T14:27:24;3.00;;;2.20;;
44746;SDS011;30472;49.490;10.972;2023-04-24T14:29:52;1.97;;;1.63;;
44746;SDS011;30472;49.490;10.972;2023-04-24T14:32:17;1.80;;;1.70;;
44746;SDS011;30472;49.490;10.972;2023-04-24T14:34:44;2.03;;;1.87;;
44746;SDS011;30472;49.490;10.972;2023-04-24T14:37:10;3.67;;;1.77;;
44746;SDS011;30472;49.490;10.972;2023-04-24T14:39:35;1.33;;;1.27;;
44746;SDS011;30472;49.490;10.972;2023-04-24T14:42:01;3.20;;;1.60;;
44746;SDS011;30472;49.490;10.972;2023-04-24T14:44:27;2.20;;;1.50;;
44746;SDS011;30472;49.490;10.972;2023-04-24T14:46:52;1.80;;;1.70;;